sensor_id;sensor_type;location;lat;lon;timestamp;P1;durP1;ratioP1;P2;durP2;ratioP2
24521;SDS011;12680;57.804;12.190;2022-10-16T00:01:37;17.25;;;7.95;;
24521;SDS011;12680;57.804;12.190;2022-10-16T00:04:05;14.30;;;8.07;;
24521;SDS011;12680;57.804;12.190;2022-10-16T00:06:32;21.90;;;8.40;;
24521;SDS011;12680;57.804;12.190;2022-10-16T00:09:03;15.50;;;7.90;;
24521;SDS011;12680;57.804;12.190;2022-10-16T00:11:32;25.20;;;7.00;;
24521;SDS011;12680;57.804;12.190;2022-10-16T00:14:04;20.35;;;7.53;;
24521;SDS011;12680;57.804;12.190;2022-10-16T00:16:33;14.25;;;6.85;;
24521;SDS011;12680;57.804;12.190;2022-10-16T00:19:01;17.98;;;6.50;;
24521;SDS011;12680;57.804;12.190;2022-10-16T00:21:29;16.45;;;6.95;;
24521;SDS011;12680;57.804;12.190;2022-10-16T00:23:58;17.13;;;6.60;;
24521;SDS011;12680;57.804;12.190;2022-10-16T00:26:27;20.83;;;6.57;;
24521;SDS011;12680;57.804;12.190;2022-10-16T00:28:56;19.83;;;6.85;;
24521;SDS011;12680;57.804;12.190;2022-10-16T00:31:24;20.58;;;6.38;;
24521;SDS011;12680;57.804;12.190;2022-10-16T00:33:55;13.10;;;5.43;;
24521;SDS011;12680;57.804;12.190;2022-10-16T00:36:23;12.93;;;5.13;;
24521;SDS011;12680;57.804;12.190;2022-10-16T00:38:55;15.98;;;5.95;;
24521;SDS011;12680;57.804;12.190;2022-10-16T00:41:32;15.30;;;5.53;;
24521;SDS011;12680;57.804;12.190;2022-10-16T00:44:00;14.13;;;4.40;;
24521;SDS011;12680;57.804;12.190;2022-10-16T00:46:56;12.93;;;4.57;;
24521;SDS011;12680;57.804;12.190;2022-10-16T00:49:27;11.23;;;4.30;;
24521;SDS011;12680;57.804;12.190;2022-10-16T00:51:58;15.50;;;4.47;;
24521;SDS011;12680;57.804;12.190;2022-10-16T00:54:26;14.10;;;4.13;;
24521;SDS011;12680;57.804;12.190;2022-10-16T00:56:58;15.07;;;4.10;;
24521;SDS011;12680;57.804;12.190;2022-10-16T00:59:29;14.55;;;3.90;;
24521;SDS011;12680;57.804;12.190;2022-10-16T01:01:59;10.32;;;3.55;;
24521;SDS011;12680;57.804;12.190;2022-10-16T01:04:26;11.05;;;3.90;;
24521;SDS011;12680;57.804;12.190;2022-10-16T01:10:07;12.20;;;3.45;;
24521;SDS011;12680;57.804;12.190;2022-10-16T01:18:24;15.27;;;3.33;;
24521;SDS011;12680;57.804;12.190;2022-10-16T01:21:15;11.27;;;3.05;;
24521;SDS011;12680;57.804;12.190;2022-10-16T01:23:58;10.45;;;2.92;;
24521;SDS011;12680;57.804;12.190;2022-10-16T01:32:16;7.22;;;2.58;;
24521;SDS011;12680;57.804;12.190;2022-10-16T01:34:52;7.45;;;2.67;;
24521;SDS011;12680;57.804;12.190;2022-10-16T01:37:33;13.65;;;3.17;;
24521;SDS011;12680;57.804;12.190;2022-10-16T01:40:09;12.32;;;2.72;;
24521;SDS011;12680;57.804;12.190;2022-10-16T01:42:40;13.50;;;2.93;;
24521;SDS011;12680;57.804;12.190;2022-10-16T01:45:13;14.55;;;2.88;;
24521;SDS011;12680;57.804;12.190;2022-10-16T01:47:44;12.00;;;2.33;;
24521;SDS011;12680;57.804;12.190;2022-10-16T01:50:16;10.25;;;2.33;;
24521;SDS011;12680;57.804;12.190;2022-10-16T01:52:49;13.68;;;2.60;;
24521;SDS011;12680;57.804;12.190;2022-10-16T01:55:20;11.45;;;2.65;;
24521;SDS011;12680;57.804;12.190;2022-10-16T01:57:52;14.57;;;2.47;;
24521;SDS011;12680;57.804;12.190;2022-10-16T02:00:21;11.93;;;2.65;;
24521;SDS011;12680;57.804;12.190;2022-10-16T02:02:50;7.78;;;2.42;;
24521;SDS011;12680;57.804;12.190;2022-10-16T02:08:08;8.82;;;2.47;;
24521;SDS011;12680;57.804;12.190;2022-10-16T02:10:35;12.00;;;3.17;;
24521;SDS011;12680;57.804;12.190;2022-10-16T02:15:36;7.10;;;2.67;;
24521;SDS011;12680;57.804;12.190;2022-10-16T02:18:03;11.93;;;2.80;;
24521;SDS011;12680;57.804;12.190;2022-10-16T02:20:43;10.68;;;2.30;;
24521;SDS011;12680;57.804;12.190;2022-10-16T02:23:19;10.70;;;2.40;;
24521;SDS011;12680;57.804;12.190;2022-10-16T02:25:57;10.32;;;2.95;;
24521;SDS011;12680;57.804;12.190;2022-10-16T02:28:30;9.73;;;2.72;;
24521;SDS011;12680;57.804;12.190;2022-10-16T02:31:27;9.55;;;2.42;;
24521;SDS011;12680;57.804;12.190;2022-10-16T02:34:00;9.75;;;1.95;;
24521;SDS011;12680;57.804;12.190;2022-10-16T02:36:32;8.23;;;2.35;;
24521;SDS011;12680;57.804;12.190;2022-10-16T02:39:00;11.30;;;2.67;;
24521;SDS011;12680;57.804;12.190;2022-10-16T02:41:30;9.38;;;2.22;;
24521;SDS011;12680;57.804;12.190;2022-10-16T02:44:04;9.32;;;2.20;;
24521;SDS011;12680;57.804;12.190;2022-10-16T02:46:31;11.73;;;2.40;;
24521;SDS011;12680;57.804;12.190;2022-10-16T02:49:03;8.15;;;2.22;;
24521;SDS011;12680;57.804;12.190;2022-10-16T02:51:30;6.22;;;2.17;;
24521;SDS011;12680;57.804;12.190;2022-10-16T02:53:58;10.82;;;2.15;;
24521;SDS011;12680;57.804;12.190;2022-10-16T02:56:25;7.53;;;2.30;;
24521;SDS011;12680;57.804;12.190;2022-10-16T02:58:52;11.63;;;2.88;;
24521;SDS011;12680;57.804;12.190;2022-10-16T03:01:23;9.68;;;2.40;;
24521;SDS011;12680;57.804;12.190;2022-10-16T03:03:55;8.05;;;2.53;;
24521;SDS011;12680;57.804;12.190;2022-10-16T03:06:29;8.18;;;2.10;;
24521;SDS011;12680;57.804;12.190;2022-10-16T03:08:56;11.27;;;2.28;;
24521;SDS011;12680;57.804;12.190;2022-10-16T03:11:24;8.77;;;2.50;;
24521;SDS011;12680;57.804;12.190;2022-10-16T03:13:54;10.63;;;2.20;;
24521;SDS011;12680;57.804;12.190;2022-10-16T03:16:28;8.77;;;2.67;;
24521;SDS011;12680;57.804;12.190;2022-10-16T03:18:59;8.52;;;2.47;;
24521;SDS011;12680;57.804;12.190;2022-10-16T03:21:30;7.30;;;2.27;;
24521;SDS011;12680;57.804;12.190;2022-10-16T03:23:59;8.48;;;2.15;;
24521;SDS011;12680;57.804;12.190;2022-10-16T03:26:27;10.57;;;2.33;;
24521;SDS011;12680;57.804;12.190;2022-10-16T03:28:57;5.15;;;2.17;;
24521;SDS011;12680;57.804;12.190;2022-10-16T03:31:29;5.28;;;1.92;;
24521;SDS011;12680;57.804;12.190;2022-10-16T03:33:57;7.65;;;1.90;;
24521;SDS011;12680;57.804;12.190;2022-10-16T03:36:25;7.55;;;2.65;;
24521;SDS011;12680;57.804;12.190;2022-10-16T03:38:52;8.07;;;2.45;;
24521;SDS011;12680;57.804;12.190;2022-10-16T03:41:20;7.25;;;2.17;;
24521;SDS011;12680;57.804;12.190;2022-10-16T03:43:48;8.98;;;2.00;;
24521;SDS011;12680;57.804;12.190;2022-10-16T03:46:19;8.55;;;1.73;;
24521;SDS011;12680;57.804;12.190;2022-10-16T03:48:47;7.47;;;2.10;;
24521;SDS011;12680;57.804;12.190;2022-10-16T03:51:15;10.65;;;1.80;;
24521;SDS011;12680;57.804;12.190;2022-10-16T03:53:46;7.72;;;1.60;;
24521;SDS011;12680;57.804;12.190;2022-10-16T03:56:13;6.88;;;1.85;;
24521;SDS011;12680;57.804;12.190;2022-10-16T03:58:43;4.32;;;2.00;;
24521;SDS011;12680;57.804;12.190;2022-10-16T04:01:14;6.45;;;1.60;;
24521;SDS011;12680;57.804;12.190;2022-10-16T04:03:41;7.93;;;2.17;;
24521;SDS011;12680;57.804;12.190;2022-10-16T04:06:09;7.45;;;1.80;;
24521;SDS011;12680;57.804;12.190;2022-10-16T04:08:36;8.05;;;2.58;;
24521;SDS011;12680;57.804;12.190;2022-10-16T04:11:05;3.38;;;1.38;;
24521;SDS011;12680;57.804;12.190;2022-10-16T04:13:32;5.78;;;1.88;;
24521;SDS011;12680;57.804;12.190;2022-10-16T04:15:59;5.28;;;1.98;;
24521;SDS011;12680;57.804;12.190;2022-10-16T04:18:27;6.53;;;2.00;;
24521;SDS011;12680;57.804;12.190;2022-10-16T04:21:02;9.48;;;1.98;;
24521;SDS011;12680;57.804;12.190;2022-10-16T04:23:33;5.97;;;1.83;;
24521;SDS011;12680;57.804;12.190;2022-10-16T04:26:00;11.18;;;1.88;;
24521;SDS011;12680;57.804;12.190;2022-10-16T04:28:27;2.55;;;1.75;;
24521;SDS011;12680;57.804;12.190;2022-10-16T04:30:57;7.50;;;1.73;;
24521;SDS011;12680;57.804;12.190;2022-10-16T04:33:25;2.75;;;1.60;;
24521;SDS011;12680;57.804;12.190;2022-10-16T04:35:58;4.90;;;1.98;;
24521;SDS011;12680;57.804;12.190;2022-10-16T04:38:27;4.78;;;1.73;;
24521;SDS011;12680;57.804;12.190;2022-10-16T04:40:54;6.65;;;1.65;;
24521;SDS011;12680;57.804;12.190;2022-10-16T04:43:26;5.55;;;1.70;;
24521;SDS011;12680;57.804;12.190;2022-10-16T04:45:56;9.00;;;1.90;;
24521;SDS011;12680;57.804;12.190;2022-10-16T04:48:23;10.18;;;1.90;;
24521;SDS011;12680;57.804;12.190;2022-10-16T04:50:51;6.00;;;1.90;;
24521;SDS011;12680;57.804;12.190;2022-10-16T04:53:21;5.63;;;1.85;;
24521;SDS011;12680;57.804;12.190;2022-10-16T04:55:48;4.95;;;2.30;;
24521;SDS011;12680;57.804;12.190;2022-10-16T04:58:17;5.00;;;1.92;;
24521;SDS011;12680;57.804;12.190;2022-10-16T05:00:44;7.40;;;1.75;;
24521;SDS011;12680;57.804;12.190;2022-10-16T05:03:20;9.10;;;2.25;;
24521;SDS011;12680;57.804;12.190;2022-10-16T05:05:48;5.53;;;2.13;;
24521;SDS011;12680;57.804;12.190;2022-10-16T05:08:15;3.40;;;1.90;;
24521;SDS011;12680;57.804;12.190;2022-10-16T05:10:49;8.90;;;2.17;;
24521;SDS011;12680;57.804;12.190;2022-10-16T05:13:16;4.80;;;1.77;;
24521;SDS011;12680;57.804;12.190;2022-10-16T05:15:46;9.90;;;2.13;;
24521;SDS011;12680;57.804;12.190;2022-10-16T05:18:15;11.30;;;2.20;;
24521;SDS011;12680;57.804;12.190;2022-10-16T05:20:42;5.03;;;2.33;;
24521;SDS011;12680;57.804;12.190;2022-10-16T05:23:09;9.45;;;2.10;;
24521;SDS011;12680;57.804;12.190;2022-10-16T05:25:41;7.28;;;2.60;;
24521;SDS011;12680;57.804;12.190;2022-10-16T05:28:08;8.30;;;2.28;;
24521;SDS011;12680;57.804;12.190;2022-10-16T05:30:38;6.03;;;1.95;;
24521;SDS011;12680;57.804;12.190;2022-10-16T05:33:06;6.88;;;1.85;;
24521;SDS011;12680;57.804;12.190;2022-10-16T05:35:33;5.55;;;2.50;;
24521;SDS011;12680;57.804;12.190;2022-10-16T05:38:00;13.35;;;2.13;;
24521;SDS011;12680;57.804;12.190;2022-10-16T05:40:31;5.32;;;1.95;;
24521;SDS011;12680;57.804;12.190;2022-10-16T05:42:59;7.07;;;2.55;;
24521;SDS011;12680;57.804;12.190;2022-10-16T05:45:27;7.10;;;2.08;;
24521;SDS011;12680;57.804;12.190;2022-10-16T05:47:57;6.40;;;2.60;;
24521;SDS011;12680;57.804;12.190;2022-10-16T05:50:24;9.25;;;2.45;;
24521;SDS011;12680;57.804;12.190;2022-10-16T05:52:52;11.55;;;2.70;;
24521;SDS011;12680;57.804;12.190;2022-10-16T05:55:22;8.00;;;2.58;;
24521;SDS011;12680;57.804;12.190;2022-10-16T05:57:55;7.37;;;2.63;;
24521;SDS011;12680;57.804;12.190;2022-10-16T06:00:22;7.15;;;2.55;;
24521;SDS011;12680;57.804;12.190;2022-10-16T06:02:53;10.77;;;4.83;;
24521;SDS011;12680;57.804;12.190;2022-10-16T06:05:20;9.38;;;3.00;;
24521;SDS011;12680;57.804;12.190;2022-10-16T06:07:51;8.25;;;2.95;;
24521;SDS011;12680;57.804;12.190;2022-10-16T06:10:18;13.53;;;4.47;;
24521;SDS011;12680;57.804;12.190;2022-10-16T06:12:45;11.40;;;4.05;;
24521;SDS011;12680;57.804;12.190;2022-10-16T06:15:13;16.02;;;3.88;;
24521;SDS011;12680;57.804;12.190;2022-10-16T06:17:43;17.75;;;4.47;;
24521;SDS011;12680;57.804;12.190;2022-10-16T06:20:12;20.77;;;5.50;;
24521;SDS011;12680;57.804;12.190;2022-10-16T06:22:39;13.60;;;4.75;;
24521;SDS011;12680;57.804;12.190;2022-10-16T06:25:10;14.60;;;6.43;;
24521;SDS011;12680;57.804;12.190;2022-10-16T06:27:39;12.90;;;4.80;;
24521;SDS011;12680;57.804;12.190;2022-10-16T06:30:07;17.08;;;4.50;;
24521;SDS011;12680;57.804;12.190;2022-10-16T06:32:38;17.02;;;6.43;;
24521;SDS011;12680;57.804;12.190;2022-10-16T06:35:06;14.27;;;5.45;;
24521;SDS011;12680;57.804;12.190;2022-10-16T06:37:33;15.48;;;5.68;;
24521;SDS011;12680;57.804;12.190;2022-10-16T06:40:01;10.73;;;5.82;;
24521;SDS011;12680;57.804;12.190;2022-10-16T06:42:30;13.57;;;7.15;;
24521;SDS011;12680;57.804;12.190;2022-10-16T06:44:57;18.17;;;7.30;;
24521;SDS011;12680;57.804;12.190;2022-10-16T06:47:25;9.63;;;5.68;;
24521;SDS011;12680;57.804;12.190;2022-10-16T06:49:52;18.02;;;5.95;;
24521;SDS011;12680;57.804;12.190;2022-10-16T06:52:19;12.30;;;4.95;;
24521;SDS011;12680;57.804;12.190;2022-10-16T06:54:46;15.05;;;5.57;;
24521;SDS011;12680;57.804;12.190;2022-10-16T06:57:18;10.30;;;5.20;;
24521;SDS011;12680;57.804;12.190;2022-10-16T06:59:45;12.25;;;6.05;;
24521;SDS011;12680;57.804;12.190;2022-10-16T07:02:16;16.57;;;5.60;;
24521;SDS011;12680;57.804;12.190;2022-10-16T07:04:43;12.98;;;5.05;;
24521;SDS011;12680;57.804;12.190;2022-10-16T07:07:12;14.00;;;6.05;;
24521;SDS011;12680;57.804;12.190;2022-10-16T07:09:40;16.23;;;6.43;;
24521;SDS011;12680;57.804;12.190;2022-10-16T07:12:07;11.98;;;5.13;;
24521;SDS011;12680;57.804;12.190;2022-10-16T07:14:34;13.25;;;6.13;;
24521;SDS011;12680;57.804;12.190;2022-10-16T07:17:02;12.45;;;5.25;;
24521;SDS011;12680;57.804;12.190;2022-10-16T07:19:29;13.80;;;5.47;;
24521;SDS011;12680;57.804;12.190;2022-10-16T07:22:00;14.45;;;4.90;;
24521;SDS011;12680;57.804;12.190;2022-10-16T07:24:27;11.73;;;3.67;;
24521;SDS011;12680;57.804;12.190;2022-10-16T07:26:54;8.40;;;3.40;;
24521;SDS011;12680;57.804;12.190;2022-10-16T07:29:22;15.05;;;3.47;;
24521;SDS011;12680;57.804;12.190;2022-10-16T07:31:49;8.48;;;3.35;;
24521;SDS011;12680;57.804;12.190;2022-10-16T07:34:17;10.73;;;3.80;;
24521;SDS011;12680;57.804;12.190;2022-10-16T07:36:47;7.82;;;3.45;;
24521;SDS011;12680;57.804;12.190;2022-10-16T07:39:15;10.80;;;3.15;;
24521;SDS011;12680;57.804;12.190;2022-10-16T07:41:42;11.43;;;2.75;;
24521;SDS011;12680;57.804;12.190;2022-10-16T07:44:09;12.43;;;2.30;;
24521;SDS011;12680;57.804;12.190;2022-10-16T07:46:37;7.40;;;2.83;;
24521;SDS011;12680;57.804;12.190;2022-10-16T07:49:04;12.95;;;6.38;;
24521;SDS011;12680;57.804;12.190;2022-10-16T07:51:31;9.38;;;6.22;;
24521;SDS011;12680;57.804;12.190;2022-10-16T07:53:58;6.78;;;3.30;;
24521;SDS011;12680;57.804;12.190;2022-10-16T07:56:25;27.65;;;9.82;;
24521;SDS011;12680;57.804;12.190;2022-10-16T07:58:53;12.55;;;4.07;;
24521;SDS011;12680;57.804;12.190;2022-10-16T08:01:20;10.52;;;4.53;;
24521;SDS011;12680;57.804;12.190;2022-10-16T08:03:48;12.82;;;5.18;;
24521;SDS011;12680;57.804;12.190;2022-10-16T08:06:17;15.25;;;5.15;;
24521;SDS011;12680;57.804;12.190;2022-10-16T08:08:53;8.00;;;3.25;;
24521;SDS011;12680;57.804;12.190;2022-10-16T08:11:20;8.95;;;1.92;;
24521;SDS011;12680;57.804;12.190;2022-10-16T08:13:48;11.55;;;2.78;;
24521;SDS011;12680;57.804;12.190;2022-10-16T08:16:15;6.88;;;2.85;;
24521;SDS011;12680;57.804;12.190;2022-10-16T08:18:43;9.73;;;2.33;;
24521;SDS011;12680;57.804;12.190;2022-10-16T08:21:14;12.18;;;2.33;;
24521;SDS011;12680;57.804;12.190;2022-10-16T08:23:46;9.45;;;2.85;;
24521;SDS011;12680;57.804;12.190;2022-10-16T08:26:24;8.13;;;2.95;;
24521;SDS011;12680;57.804;12.190;2022-10-16T08:28:52;7.25;;;2.30;;
24521;SDS011;12680;57.804;12.190;2022-10-16T08:31:20;11.18;;;2.80;;
24521;SDS011;12680;57.804;12.190;2022-10-16T08:33:48;6.53;;;1.80;;
24521;SDS011;12680;57.804;12.190;2022-10-16T08:36:15;14.52;;;2.80;;
24521;SDS011;12680;57.804;12.190;2022-10-16T08:38:43;11.70;;;3.00;;
24521;SDS011;12680;57.804;12.190;2022-10-16T08:41:16;5.90;;;2.03;;
24521;SDS011;12680;57.804;12.190;2022-10-16T08:49:40;12.45;;;2.85;;
24521;SDS011;12680;57.804;12.190;2022-10-16T08:52:10;7.40;;;2.20;;
24521;SDS011;12680;57.804;12.190;2022-10-16T08:54:44;10.48;;;2.80;;
24521;SDS011;12680;57.804;12.190;2022-10-16T08:57:20;9.85;;;2.10;;
24521;SDS011;12680;57.804;12.190;2022-10-16T08:59:49;13.25;;;2.72;;
24521;SDS011;12680;57.804;12.190;2022-10-16T09:02:27;12.32;;;2.95;;
24521;SDS011;12680;57.804;12.190;2022-10-16T09:05:02;8.33;;;2.50;;
24521;SDS011;12680;57.804;12.190;2022-10-16T09:07:59;8.23;;;2.45;;
24521;SDS011;12680;57.804;12.190;2022-10-16T09:13:46;9.70;;;2.50;;
24521;SDS011;12680;57.804;12.190;2022-10-16T09:16:34;11.75;;;1.85;;
24521;SDS011;12680;57.804;12.190;2022-10-16T09:21:42;7.20;;;2.15;;
24521;SDS011;12680;57.804;12.190;2022-10-16T09:24:15;10.55;;;2.35;;
24521;SDS011;12680;57.804;12.190;2022-10-16T09:26:45;11.45;;;1.85;;
24521;SDS011;12680;57.804;12.190;2022-10-16T09:29:14;10.35;;;2.17;;
24521;SDS011;12680;57.804;12.190;2022-10-16T09:31:42;15.18;;;2.35;;
24521;SDS011;12680;57.804;12.190;2022-10-16T09:36:57;10.10;;;2.80;;
24521;SDS011;12680;57.804;12.190;2022-10-16T09:39:26;9.77;;;3.08;;
24521;SDS011;12680;57.804;12.190;2022-10-16T09:41:53;11.77;;;2.55;;
24521;SDS011;12680;57.804;12.190;2022-10-16T09:47:05;12.52;;;2.40;;
24521;SDS011;12680;57.804;12.190;2022-10-16T09:49:39;13.57;;;2.83;;
24521;SDS011;12680;57.804;12.190;2022-10-16T09:52:21;18.33;;;2.85;;
24521;SDS011;12680;57.804;12.190;2022-10-16T09:54:50;9.57;;;2.10;;
24521;SDS011;12680;57.804;12.190;2022-10-16T09:57:19;11.07;;;2.60;;
24521;SDS011;12680;57.804;12.190;2022-10-16T09:59:48;15.82;;;2.60;;
24521;SDS011;12680;57.804;12.190;2022-10-16T10:02:23;11.85;;;2.40;;
24521;SDS011;12680;57.804;12.190;2022-10-16T10:04:56;12.27;;;2.50;;
24521;SDS011;12680;57.804;12.190;2022-10-16T10:07:25;16.98;;;3.17;;
24521;SDS011;12680;57.804;12.190;2022-10-16T10:10:03;10.73;;;2.08;;
24521;SDS011;12680;57.804;12.190;2022-10-16T10:12:32;14.32;;;3.00;;
24521;SDS011;12680;57.804;12.190;2022-10-16T10:17:44;12.32;;;2.22;;
24521;SDS011;12680;57.804;12.190;2022-10-16T10:20:27;14.30;;;2.78;;
24521;SDS011;12680;57.804;12.190;2022-10-16T10:23:13;15.07;;;3.85;;
24521;SDS011;12680;57.804;12.190;2022-10-16T10:26:09;17.30;;;2.97;;
24521;SDS011;12680;57.804;12.190;2022-10-16T10:32:02;12.90;;;2.60;;
24521;SDS011;12680;57.804;12.190;2022-10-16T10:34:26;14.85;;;2.65;;
24521;SDS011;12680;57.804;12.190;2022-10-16T10:37:25;13.43;;;2.72;;
24521;SDS011;12680;57.804;12.190;2022-10-16T10:43:10;13.35;;;2.75;;
24521;SDS011;12680;57.804;12.190;2022-10-16T10:45:43;12.80;;;2.70;;
24521;SDS011;12680;57.804;12.190;2022-10-16T10:48:17;10.90;;;2.53;;
24521;SDS011;12680;57.804;12.190;2022-10-16T10:51:03;18.80;;;2.43;;
24521;SDS011;12680;57.804;12.190;2022-10-16T10:56:42;16.08;;;2.90;;
24521;SDS011;12680;57.804;12.190;2022-10-16T11:16:26;12.15;;;2.50;;
24521;SDS011;12680;57.804;12.190;2022-10-16T11:22:13;9.25;;;1.98;;
24521;SDS011;12680;57.804;12.190;2022-10-16T11:25:04;11.65;;;1.65;;
24521;SDS011;12680;57.804;12.190;2022-10-16T11:27:52;15.75;;;2.80;;
24521;SDS011;12680;57.804;12.190;2022-10-16T11:30:34;7.32;;;2.47;;
24521;SDS011;12680;57.804;12.190;2022-10-16T11:36:25;14.38;;;2.30;;
24521;SDS011;12680;57.804;12.190;2022-10-16T11:53:19;12.60;;;3.63;;
24521;SDS011;12680;57.804;12.190;2022-10-16T11:56:05;16.02;;;2.95;;
24521;SDS011;12680;57.804;12.190;2022-10-16T12:03:41;11.18;;;2.90;;
24521;SDS011;12680;57.804;12.190;2022-10-16T12:09:30;9.88;;;2.63;;
24521;SDS011;12680;57.804;12.190;2022-10-16T13:32:22;15.55;;;2.45;;
24521;SDS011;12680;57.804;12.190;2022-10-16T13:34:49;8.90;;;1.60;;
24521;SDS011;12680;57.804;12.190;2022-10-16T13:37:17;8.52;;;1.67;;
24521;SDS011;12680;57.804;12.190;2022-10-16T13:39:47;13.60;;;2.05;;
24521;SDS011;12680;57.804;12.190;2022-10-16T13:42:15;16.70;;;2.10;;
24521;SDS011;12680;57.804;12.190;2022-10-16T13:44:54;8.25;;;1.88;;
24521;SDS011;12680;57.804;12.190;2022-10-16T13:47:23;11.05;;;1.80;;
24521;SDS011;12680;57.804;12.190;2022-10-16T13:50:03;9.95;;;1.65;;
24521;SDS011;12680;57.804;12.190;2022-10-16T13:52:38;13.48;;;2.17;;
24521;SDS011;12680;57.804;12.190;2022-10-16T13:55:13;16.83;;;2.13;;
24521;SDS011;12680;57.804;12.190;2022-10-16T13:57:42;10.95;;;2.30;;
24521;SDS011;12680;57.804;12.190;2022-10-16T14:00:19;12.48;;;1.92;;
24521;SDS011;12680;57.804;12.190;2022-10-16T14:02:55;12.40;;;2.47;;
24521;SDS011;12680;57.804;12.190;2022-10-16T14:05:27;12.50;;;2.40;;
24521;SDS011;12680;57.804;12.190;2022-10-16T14:07:54;17.73;;;2.33;;
24521;SDS011;12680;57.804;12.190;2022-10-16T14:10:27;11.85;;;2.08;;
24521;SDS011;12680;57.804;12.190;2022-10-16T14:13:00;14.57;;;3.00;;
24521;SDS011;12680;57.804;12.190;2022-10-16T14:15:33;10.23;;;2.15;;
24521;SDS011;12680;57.804;12.190;2022-10-16T14:18:13;14.13;;;2.25;;
24521;SDS011;12680;57.804;12.190;2022-10-16T14:20:44;12.70;;;2.10;;
24521;SDS011;12680;57.804;12.190;2022-10-16T14:25:45;12.63;;;2.08;;
24521;SDS011;12680;57.804;12.190;2022-10-16T14:30:49;14.32;;;1.67;;
24521;SDS011;12680;57.804;12.190;2022-10-16T14:33:21;13.52;;;3.53;;
24521;SDS011;12680;57.804;12.190;2022-10-16T14:36:03;14.15;;;2.55;;
24521;SDS011;12680;57.804;12.190;2022-10-16T14:38:41;12.90;;;2.17;;
24521;SDS011;12680;57.804;12.190;2022-10-16T14:41:14;10.90;;;2.17;;
24521;SDS011;12680;57.804;12.190;2022-10-16T14:43:42;8.00;;;1.95;;
24521;SDS011;12680;57.804;12.190;2022-10-16T14:46:17;10.57;;;1.80;;
24521;SDS011;12680;57.804;12.190;2022-10-16T14:48:52;10.13;;;2.10;;
24521;SDS011;12680;57.804;12.190;2022-10-16T14:51:42;16.98;;;2.15;;
24521;SDS011;12680;57.804;12.190;2022-10-16T14:54:11;12.55;;;2.30;;
24521;SDS011;12680;57.804;12.190;2022-10-16T14:59:28;8.93;;;1.88;;
24521;SDS011;12680;57.804;12.190;2022-10-16T15:02:00;13.25;;;2.00;;
24521;SDS011;12680;57.804;12.190;2022-10-16T15:04:46;12.75;;;2.28;;
24521;SDS011;12680;57.804;12.190;2022-10-16T15:07:14;11.05;;;2.25;;
24521;SDS011;12680;57.804;12.190;2022-10-16T15:09:41;13.98;;;2.20;;
24521;SDS011;12680;57.804;12.190;2022-10-16T15:12:15;11.35;;;2.40;;
24521;SDS011;12680;57.804;12.190;2022-10-16T15:14:43;15.23;;;2.55;;
24521;SDS011;12680;57.804;12.190;2022-10-16T15:17:10;21.30;;;2.75;;
24521;SDS011;12680;57.804;12.190;2022-10-16T15:19:37;11.35;;;2.13;;
24521;SDS011;12680;57.804;12.190;2022-10-16T15:22:05;9.07;;;2.08;;
24521;SDS011;12680;57.804;12.190;2022-10-16T15:24:37;6.95;;;2.00;;
24521;SDS011;12680;57.804;12.190;2022-10-16T15:27:04;15.80;;;2.47;;
24521;SDS011;12680;57.804;12.190;2022-10-16T15:29:32;7.72;;;2.00;;
24521;SDS011;12680;57.804;12.190;2022-10-16T15:31:59;10.63;;;1.52;;
24521;SDS011;12680;57.804;12.190;2022-10-16T15:34:26;17.42;;;2.50;;
24521;SDS011;12680;57.804;12.190;2022-10-16T15:36:53;12.30;;;2.20;;
24521;SDS011;12680;57.804;12.190;2022-10-16T15:39:21;16.73;;;2.33;;
24521;SDS011;12680;57.804;12.190;2022-10-16T15:41:48;8.30;;;1.80;;
24521;SDS011;12680;57.804;12.190;2022-10-16T15:44:17;14.38;;;2.17;;
24521;SDS011;12680;57.804;12.190;2022-10-16T15:46:45;12.52;;;2.33;;
24521;SDS011;12680;57.804;12.190;2022-10-16T15:49:13;12.23;;;2.65;;
24521;SDS011;12680;57.804;12.190;2022-10-16T15:51:41;12.60;;;2.33;;
24521;SDS011;12680;57.804;12.190;2022-10-16T15:54:08;11.35;;;1.70;;
24521;SDS011;12680;57.804;12.190;2022-10-16T15:56:36;10.30;;;1.90;;
24521;SDS011;12680;57.804;12.190;2022-10-16T15:59:03;13.48;;;2.40;;
24521;SDS011;12680;57.804;12.190;2022-10-16T16:01:32;11.30;;;2.22;;
24521;SDS011;12680;57.804;12.190;2022-10-16T16:04:00;12.02;;;1.63;;
24521;SDS011;12680;57.804;12.190;2022-10-16T16:06:40;8.85;;;1.73;;
24521;SDS011;12680;57.804;12.190;2022-10-16T16:09:11;11.65;;;2.22;;
24521;SDS011;12680;57.804;12.190;2022-10-16T16:11:40;9.57;;;1.83;;
24521;SDS011;12680;57.804;12.190;2022-10-16T16:14:10;13.15;;;2.08;;
24521;SDS011;12680;57.804;12.190;2022-10-16T16:16:39;8.98;;;1.98;;
24521;SDS011;12680;57.804;12.190;2022-10-16T16:19:07;13.80;;;2.65;;
24521;SDS011;12680;57.804;12.190;2022-10-16T16:21:37;11.60;;;2.33;;
24521;SDS011;12680;57.804;12.190;2022-10-16T16:24:05;12.65;;;2.97;;
24521;SDS011;12680;57.804;12.190;2022-10-16T16:26:35;11.85;;;2.20;;
24521;SDS011;12680;57.804;12.190;2022-10-16T16:29:06;13.83;;;2.00;;
24521;SDS011;12680;57.804;12.190;2022-10-16T16:31:33;13.38;;;3.22;;
24521;SDS011;12680;57.804;12.190;2022-10-16T16:34:01;13.18;;;2.63;;
24521;SDS011;12680;57.804;12.190;2022-10-16T16:36:29;10.55;;;2.38;;
24521;SDS011;12680;57.804;12.190;2022-10-16T16:38:57;8.23;;;2.05;;
24521;SDS011;12680;57.804;12.190;2022-10-16T16:41:28;15.98;;;2.05;;
24521;SDS011;12680;57.804;12.190;2022-10-16T16:44:06;12.57;;;2.42;;
24521;SDS011;12680;57.804;12.190;2022-10-16T16:46:36;9.98;;;2.40;;
24521;SDS011;12680;57.804;12.190;2022-10-16T16:49:09;14.02;;;2.17;;
24521;SDS011;12680;57.804;12.190;2022-10-16T16:51:42;15.23;;;2.38;;
24521;SDS011;12680;57.804;12.190;2022-10-16T16:54:10;10.40;;;2.17;;
24521;SDS011;12680;57.804;12.190;2022-10-16T16:56:39;11.50;;;2.15;;
24521;SDS011;12680;57.804;12.190;2022-10-16T16:59:13;10.98;;;1.92;;
24521;SDS011;12680;57.804;12.190;2022-10-16T17:01:46;16.42;;;2.60;;
24521;SDS011;12680;57.804;12.190;2022-10-16T17:04:19;13.20;;;2.45;;
24521;SDS011;12680;57.804;12.190;2022-10-16T17:06:46;12.38;;;2.58;;
24521;SDS011;12680;57.804;12.190;2022-10-16T17:09:15;12.63;;;2.15;;
24521;SDS011;12680;57.804;12.190;2022-10-16T17:11:43;13.73;;;2.15;;
24521;SDS011;12680;57.804;12.190;2022-10-16T17:14:14;14.05;;;2.10;;
24521;SDS011;12680;57.804;12.190;2022-10-16T17:16:45;11.63;;;2.35;;
24521;SDS011;12680;57.804;12.190;2022-10-16T17:19:18;16.15;;;3.25;;
24521;SDS011;12680;57.804;12.190;2022-10-16T17:21:49;15.65;;;2.20;;
24521;SDS011;12680;57.804;12.190;2022-10-16T17:50:50;9.80;;;2.08;;
24521;SDS011;12680;57.804;12.190;2022-10-16T17:53:20;16.80;;;2.00;;
24521;SDS011;12680;57.804;12.190;2022-10-16T17:55:48;13.82;;;2.50;;
24521;SDS011;12680;57.804;12.190;2022-10-16T17:58:15;17.23;;;2.70;;
24521;SDS011;12680;57.804;12.190;2022-10-16T18:00:46;14.10;;;2.00;;
24521;SDS011;12680;57.804;12.190;2022-10-16T18:03:13;15.23;;;2.92;;
24521;SDS011;12680;57.804;12.190;2022-10-16T18:05:41;18.88;;;3.35;;
24521;SDS011;12680;57.804;12.190;2022-10-16T18:08:08;20.38;;;2.92;;
24521;SDS011;12680;57.804;12.190;2022-10-16T18:10:35;14.80;;;3.13;;
24521;SDS011;12680;57.804;12.190;2022-10-16T18:13:03;16.58;;;4.03;;
24521;SDS011;12680;57.804;12.190;2022-10-16T18:15:30;21.45;;;2.83;;
24521;SDS011;12680;57.804;12.190;2022-10-16T18:17:58;19.02;;;3.10;;